Airfield :
LOGIN :

Register | Disclaimer

   EN    FR    IT 

 










Legend :    VFR   Marginal VFR   IFR   Intensive IFR   Very Intensive IFR
Visi :
Ceiling :
>= 8 km
>= 3000ft
5 to 8 km
1000 to 3000 ft
1500m to 5 km
500 to 1000 ft
800 to 1500m
200 to 500 ft
< 800m
< 200 ft
Symbols :   Thunderstorms  Fog  Heavy snow  Heavy precipitations  Wind > 20 kt
SIGMETs :     Misc.  Thunderstorms  Icing  Turbulence  Mountain Waves  Volcanic Ashes







- Airport Elevation : 2096 ft
- IATA code : AUR
- Download approach charts


LFLW - Aurillac

CURRENT METAR :
  • 201500Z AUTO 36006KT 330V030 9999 FEW031 BKN060 OVC070 12/08 Q1013 NOSIG

EXPIRED METARs :
  • 201430Z AUTO 32006KT 290V360 9999 FEW033 SCT052 BKN062 13/08 Q1014 NOSIG
  • 201400Z AUTO 31007KT 260V340 9999 FEW022 OVC054 13/08 Q1014 NOSIG
  • 201330Z AUTO 29007KT 9999 FEW020 BKN038 BKN062 13/09 Q1014 NOSIG
  • 201300Z AUTO 31008KT 270V340 9999 BKN019 BKN034 OVC048 12/08 Q1014 NOSIG
  • 201230Z AUTO 33007KT 9999 SCT019 OVC029 12/09 Q1014 NOSIG

TAF TAF LFLW
Valid from the 20 at 15:00 until the 21 at 00:00 UTC


201400Z 2015/2024 30007KT 9999 BKN025
TEMPO 2015/2018 -SHRA
BECMG 2018/2021 VRB03KT
No reported NOTAMs for that airfield.



MET'MAP, your aeronautical weather chart ! - Copyright ORBIFLY December 2007 - Disclaimer

ORBIFLY MET'MAP TEAM :

Programming & Development : Alexandra Zaïnal
Concept & Development : Baudouin d'Aumeries
Co-Development & Prog : Marc-Olivier Méhu
Technical & hardware support : Manuel Goepfert

Contact : metmap@orbifly.com




SOURCES & CREDITS :

   NOAA